sensor_id;sensor_type;location;lat;lon;timestamp;P1;durP1;ratioP1;P2;durP2;ratioP2
17199;SDS011;8716;52.268;20.968;2023-04-15T00:01:17;8.67;;;8.20;;
17199;SDS011;8716;52.268;20.968;2023-04-15T00:03:46;6.80;;;6.40;;
17199;SDS011;8716;52.268;20.968;2023-04-15T00:06:14;10.37;;;9.30;;
17199;SDS011;8716;52.268;20.968;2023-04-15T00:08:42;10.27;;;9.73;;
17199;SDS011;8716;52.268;20.968;2023-04-15T00:11:11;12.43;;;11.80;;
17199;SDS011;8716;52.268;20.968;2023-04-15T00:13:39;11.50;;;10.90;;
17199;SDS011;8716;52.268;20.968;2023-04-15T00:16:09;7.27;;;6.87;;
17199;SDS011;8716;52.268;20.968;2023-04-15T00:18:37;9.07;;;8.57;;
17199;SDS011;8716;52.268;20.968;2023-04-15T00:21:05;7.40;;;7.00;;
17199;SDS011;8716;52.268;20.968;2023-04-15T00:23:34;23.00;;;10.20;;
17199;SDS011;8716;52.268;20.968;2023-04-15T00:26:02;8.67;;;8.20;;
17199;SDS011;8716;52.268;20.968;2023-04-15T00:28:31;12.73;;;12.07;;
17199;SDS011;8716;52.268;20.968;2023-04-15T00:30:59;12.03;;;9.20;;
17199;SDS011;8716;52.268;20.968;2023-04-15T00:33:29;9.27;;;8.77;;
17199;SDS011;8716;52.268;20.968;2023-04-15T00:35:57;8.10;;;7.70;;
17199;SDS011;8716;52.268;20.968;2023-04-15T00:38:25;9.47;;;5.80;;
17199;SDS011;8716;52.268;20.968;2023-04-15T00:40:54;6.13;;;5.83;;
17199;SDS011;8716;52.268;20.968;2023-04-15T00:43:25;8.93;;;8.43;;
17199;SDS011;8716;52.268;20.968;2023-04-15T00:45:55;7.87;;;7.43;;
17199;SDS011;8716;52.268;20.968;2023-04-15T00:48:25;8.70;;;8.20;;
17199;SDS011;8716;52.268;20.968;2023-04-15T00:50:56;9.13;;;8.63;;
17199;SDS011;8716;52.268;20.968;2023-04-15T00:53:24;12.77;;;9.33;;
17199;SDS011;8716;52.268;20.968;2023-04-15T00:55:52;7.13;;;6.73;;
17199;SDS011;8716;52.268;20.968;2023-04-15T00:58:21;10.20;;;9.70;;
17199;SDS011;8716;52.268;20.968;2023-04-15T01:00:49;13.60;;;10.63;;
17199;SDS011;8716;52.268;20.968;2023-04-15T01:03:19;12.57;;;11.90;;
17199;SDS011;8716;52.268;20.968;2023-04-15T01:05:48;6.40;;;6.00;;
17199;SDS011;8716;52.268;20.968;2023-04-15T01:08:19;9.90;;;9.40;;
17199;SDS011;8716;52.268;20.968;2023-04-15T01:10:47;8.90;;;8.40;;
17199;SDS011;8716;52.268;20.968;2023-04-15T01:13:16;8.03;;;7.63;;
17199;SDS011;8716;52.268;20.968;2023-04-15T01:15:44;7.80;;;7.40;;
17199;SDS011;8716;52.268;20.968;2023-04-15T01:18:12;10.03;;;9.50;;
17199;SDS011;8716;52.268;20.968;2023-04-15T01:20:41;17.40;;;10.23;;
17199;SDS011;8716;52.268;20.968;2023-04-15T01:23:09;8.73;;;8.23;;
17199;SDS011;8716;52.268;20.968;2023-04-15T01:25:38;11.30;;;10.70;;
17199;SDS011;8716;52.268;20.968;2023-04-15T01:28:12;9.20;;;8.70;;
17199;SDS011;8716;52.268;20.968;2023-04-15T01:30:40;9.20;;;8.70;;
17199;SDS011;8716;52.268;20.968;2023-04-15T01:33:08;9.13;;;8.63;;
17199;SDS011;8716;52.268;20.968;2023-04-15T01:35:37;15.83;;;15.03;;
17199;SDS011;8716;52.268;20.968;2023-04-15T01:38:06;10.67;;;10.10;;
17199;SDS011;8716;52.268;20.968;2023-04-15T01:40:36;9.60;;;9.10;;
17199;SDS011;8716;52.268;20.968;2023-04-15T01:43:06;12.97;;;10.50;;
17199;SDS011;8716;52.268;20.968;2023-04-15T01:45:34;10.90;;;10.30;;
17199;SDS011;8716;52.268;20.968;2023-04-15T01:48:05;8.47;;;7.00;;
17199;SDS011;8716;52.268;20.968;2023-04-15T01:50:36;9.33;;;8.83;;
17199;SDS011;8716;52.268;20.968;2023-04-15T01:53:07;11.47;;;10.87;;
17199;SDS011;8716;52.268;20.968;2023-04-15T01:55:35;9.37;;;8.87;;
17199;SDS011;8716;52.268;20.968;2023-04-15T01:58:03;11.50;;;9.47;;
17199;SDS011;8716;52.268;20.968;2023-04-15T02:00:33;9.30;;;8.80;;
17199;SDS011;8716;52.268;20.968;2023-04-15T02:03:02;9.90;;;9.40;;
17199;SDS011;8716;52.268;20.968;2023-04-15T02:05:30;14.13;;;13.40;;
17199;SDS011;8716;52.268;20.968;2023-04-15T02:07:59;10.67;;;10.10;;
17199;SDS011;8716;52.268;20.968;2023-04-15T02:10:27;9.57;;;9.07;;
17199;SDS011;8716;52.268;20.968;2023-04-15T02:12:57;11.37;;;10.77;;
17199;SDS011;8716;52.268;20.968;2023-04-15T02:15:27;12.23;;;8.43;;
17199;SDS011;8716;52.268;20.968;2023-04-15T02:17:57;6.43;;;6.03;;
17199;SDS011;8716;52.268;20.968;2023-04-15T02:20:26;12.23;;;11.60;;
17199;SDS011;8716;52.268;20.968;2023-04-15T02:22:56;16.30;;;15.50;;
17199;SDS011;8716;52.268;20.968;2023-04-15T02:25:27;8.87;;;8.37;;
17199;SDS011;8716;52.268;20.968;2023-04-15T02:27:56;10.23;;;9.73;;
17199;SDS011;8716;52.268;20.968;2023-04-15T02:30:24;12.53;;;10.47;;
17199;SDS011;8716;52.268;20.968;2023-04-15T02:32:52;16.53;;;9.33;;
17199;SDS011;8716;52.268;20.968;2023-04-15T02:35:24;14.13;;;13.43;;
17199;SDS011;8716;52.268;20.968;2023-04-15T02:37:53;13.73;;;13.03;;
17199;SDS011;8716;52.268;20.968;2023-04-15T02:40:22;13.00;;;12.40;;
17199;SDS011;8716;52.268;20.968;2023-04-15T02:42:52;13.43;;;12.73;;
17199;SDS011;8716;52.268;20.968;2023-04-15T02:45:21;23.00;;;14.90;;
17199;SDS011;8716;52.268;20.968;2023-04-15T02:47:51;10.73;;;10.13;;
17199;SDS011;8716;52.268;20.968;2023-04-15T02:50:25;12.20;;;11.60;;
17199;SDS011;8716;52.268;20.968;2023-04-15T02:52:53;12.67;;;12.00;;
17199;SDS011;8716;52.268;20.968;2023-04-15T02:55:22;11.50;;;10.87;;
17199;SDS011;8716;52.268;20.968;2023-04-15T02:57:50;6.90;;;6.50;;
17199;SDS011;8716;52.268;20.968;2023-04-15T03:04:30;9.20;;;8.17;;
17199;SDS011;8716;52.268;20.968;2023-04-15T03:07:00;11.13;;;10.53;;
17199;SDS011;8716;52.268;20.968;2023-04-15T03:09:29;10.63;;;9.13;;
17199;SDS011;8716;52.268;20.968;2023-04-15T03:12:02;13.70;;;13.00;;
17199;SDS011;8716;52.268;20.968;2023-04-15T03:14:33;12.37;;;11.73;;
17199;SDS011;8716;52.268;20.968;2023-04-15T03:17:03;11.30;;;10.70;;
17199;SDS011;8716;52.268;20.968;2023-04-15T03:19:50;7.03;;;6.63;;
17199;SDS011;8716;52.268;20.968;2023-04-15T03:22:23;8.90;;;8.40;;
17199;SDS011;8716;52.268;20.968;2023-04-15T03:24:53;14.73;;;11.03;;
17199;SDS011;8716;52.268;20.968;2023-04-15T03:27:24;11.37;;;9.00;;
17199;SDS011;8716;52.268;20.968;2023-04-15T03:29:57;10.70;;;10.10;;
17199;SDS011;8716;52.268;20.968;2023-04-15T03:32:29;10.30;;;9.80;;
17199;SDS011;8716;52.268;20.968;2023-04-15T03:35:00;8.53;;;8.03;;
17199;SDS011;8716;52.268;20.968;2023-04-15T03:37:29;9.20;;;8.70;;
17199;SDS011;8716;52.268;20.968;2023-04-15T03:40:01;9.60;;;9.10;;
17199;SDS011;8716;52.268;20.968;2023-04-15T03:42:31;10.93;;;10.33;;
17199;SDS011;8716;52.268;20.968;2023-04-15T03:44:59;9.00;;;8.50;;
17199;SDS011;8716;52.268;20.968;2023-04-15T03:47:27;8.57;;;8.07;;
17199;SDS011;8716;52.268;20.968;2023-04-15T03:49:56;12.60;;;11.97;;
17199;SDS011;8716;52.268;20.968;2023-04-15T03:52:30;12.97;;;12.27;;
17199;SDS011;8716;52.268;20.968;2023-04-15T03:54:58;16.63;;;11.90;;
17199;SDS011;8716;52.268;20.968;2023-04-15T03:57:27;11.43;;;10.83;;
17199;SDS011;8716;52.268;20.968;2023-04-15T03:59:55;16.40;;;9.20;;
17199;SDS011;8716;52.268;20.968;2023-04-15T04:02:37;8.63;;;8.13;;
17199;SDS011;8716;52.268;20.968;2023-04-15T04:05:08;9.93;;;9.40;;
17199;SDS011;8716;52.268;20.968;2023-04-15T04:07:42;9.03;;;8.53;;
17199;SDS011;8716;52.268;20.968;2023-04-15T04:10:10;11.97;;;11.37;;
17199;SDS011;8716;52.268;20.968;2023-04-15T04:12:41;7.97;;;7.57;;
17199;SDS011;8716;52.268;20.968;2023-04-15T04:15:12;9.97;;;9.27;;
17199;SDS011;8716;52.268;20.968;2023-04-15T04:17:49;10.37;;;9.87;;
17199;SDS011;8716;52.268;20.968;2023-04-15T04:20:17;9.63;;;9.13;;
17199;SDS011;8716;52.268;20.968;2023-04-15T04:25:41;9.20;;;8.70;;
17199;SDS011;8716;52.268;20.968;2023-04-15T04:31:05;7.90;;;7.50;;
17199;SDS011;8716;52.268;20.968;2023-04-15T04:33:36;13.07;;;11.90;;
17199;SDS011;8716;52.268;20.968;2023-04-15T04:36:06;8.57;;;8.10;;
17199;SDS011;8716;52.268;20.968;2023-04-15T04:38:36;11.10;;;10.50;;
17199;SDS011;8716;52.268;20.968;2023-04-15T04:41:04;13.97;;;13.27;;
17199;SDS011;8716;52.268;20.968;2023-04-15T04:43:32;12.93;;;11.00;;
17199;SDS011;8716;52.268;20.968;2023-04-15T04:46:00;17.13;;;9.73;;
17199;SDS011;8716;52.268;20.968;2023-04-15T04:48:29;10.53;;;9.97;;
17199;SDS011;8716;52.268;20.968;2023-04-15T04:50:57;10.53;;;9.97;;
17199;SDS011;8716;52.268;20.968;2023-04-15T04:53:27;10.37;;;9.87;;
17199;SDS011;8716;52.268;20.968;2023-04-15T04:55:59;13.40;;;9.40;;
17199;SDS011;8716;52.268;20.968;2023-04-15T04:58:30;16.80;;;15.97;;
17199;SDS011;8716;52.268;20.968;2023-04-15T05:00:58;12.47;;;10.57;;
17199;SDS011;8716;52.268;20.968;2023-04-15T05:03:28;11.40;;;9.83;;
17199;SDS011;8716;52.268;20.968;2023-04-15T05:05:59;8.90;;;8.40;;
17199;SDS011;8716;52.268;20.968;2023-04-15T05:08:31;8.33;;;7.90;;
17199;SDS011;8716;52.268;20.968;2023-04-15T05:11:04;9.77;;;9.27;;
17199;SDS011;8716;52.268;20.968;2023-04-15T05:13:32;13.73;;;13.03;;
17199;SDS011;8716;52.268;20.968;2023-04-15T05:16:04;9.67;;;9.17;;
17199;SDS011;8716;52.268;20.968;2023-04-15T05:18:33;10.63;;;9.67;;
17199;SDS011;8716;52.268;20.968;2023-04-15T05:21:01;10.93;;;10.00;;
17199;SDS011;8716;52.268;20.968;2023-04-15T05:23:32;8.47;;;8.00;;
17199;SDS011;8716;52.268;20.968;2023-04-15T05:26:00;13.03;;;10.93;;
17199;SDS011;8716;52.268;20.968;2023-04-15T05:28:32;14.70;;;13.30;;
17199;SDS011;8716;52.268;20.968;2023-04-15T05:31:01;9.27;;;8.77;;
17199;SDS011;8716;52.268;20.968;2023-04-15T05:33:29;13.70;;;10.13;;
17199;SDS011;8716;52.268;20.968;2023-04-15T05:35:57;13.70;;;10.17;;
17199;SDS011;8716;52.268;20.968;2023-04-15T05:38:25;8.33;;;7.90;;
17199;SDS011;8716;52.268;20.968;2023-04-15T05:40:56;9.10;;;8.40;;
17199;SDS011;8716;52.268;20.968;2023-04-15T05:43:24;9.10;;;8.60;;
17199;SDS011;8716;52.268;20.968;2023-04-15T05:45:54;10.53;;;9.97;;
17199;SDS011;8716;52.268;20.968;2023-04-15T05:48:22;13.73;;;10.97;;
17199;SDS011;8716;52.268;20.968;2023-04-15T05:50:50;10.20;;;9.47;;
17199;SDS011;8716;52.268;20.968;2023-04-15T05:53:18;13.47;;;12.77;;
17199;SDS011;8716;52.268;20.968;2023-04-15T05:55:47;15.63;;;10.60;;
17199;SDS011;8716;52.268;20.968;2023-04-15T05:58:15;11.73;;;11.13;;
17199;SDS011;8716;52.268;20.968;2023-04-15T06:00:43;8.00;;;7.60;;
17199;SDS011;8716;52.268;20.968;2023-04-15T06:03:13;10.13;;;9.50;;
17199;SDS011;8716;52.268;20.968;2023-04-15T06:05:42;8.67;;;8.17;;
17199;SDS011;8716;52.268;20.968;2023-04-15T06:08:10;11.70;;;9.37;;
17199;SDS011;8716;52.268;20.968;2023-04-15T06:10:39;10.03;;;8.63;;
17199;SDS011;8716;52.268;20.968;2023-04-15T06:13:07;7.70;;;7.30;;
17199;SDS011;8716;52.268;20.968;2023-04-15T06:15:35;6.97;;;6.57;;
17199;SDS011;8716;52.268;20.968;2023-04-15T06:18:06;7.93;;;7.53;;
17199;SDS011;8716;52.268;20.968;2023-04-15T06:20:35;14.37;;;7.80;;
17199;SDS011;8716;52.268;20.968;2023-04-15T06:23:03;10.57;;;10.00;;
17199;SDS011;8716;52.268;20.968;2023-04-15T06:25:32;9.13;;;8.63;;
17199;SDS011;8716;52.268;20.968;2023-04-15T06:28:00;7.43;;;6.90;;
17199;SDS011;8716;52.268;20.968;2023-04-15T06:30:28;11.20;;;10.60;;
17199;SDS011;8716;52.268;20.968;2023-04-15T06:32:56;7.73;;;7.33;;
17199;SDS011;8716;52.268;20.968;2023-04-15T06:35:25;10.87;;;10.27;;
17199;SDS011;8716;52.268;20.968;2023-04-15T06:37:55;8.30;;;7.90;;
17199;SDS011;8716;52.268;20.968;2023-04-15T06:40:23;12.43;;;11.83;;
17199;SDS011;8716;52.268;20.968;2023-04-15T06:42:52;9.10;;;8.60;;
17199;SDS011;8716;52.268;20.968;2023-04-15T06:45:20;7.73;;;7.33;;
17199;SDS011;8716;52.268;20.968;2023-04-15T06:47:48;10.13;;;6.90;;
17199;SDS011;8716;52.268;20.968;2023-04-15T06:50:18;9.13;;;8.63;;
17199;SDS011;8716;52.268;20.968;2023-04-15T06:52:49;7.90;;;7.50;;
17199;SDS011;8716;52.268;20.968;2023-04-15T06:55:18;7.77;;;7.37;;
17199;SDS011;8716;52.268;20.968;2023-04-15T06:57:47;6.97;;;6.57;;
17199;SDS011;8716;52.268;20.968;2023-04-15T07:00:16;10.87;;;10.27;;
17199;SDS011;8716;52.268;20.968;2023-04-15T07:02:44;11.87;;;11.00;;
17199;SDS011;8716;52.268;20.968;2023-04-15T07:05:15;9.57;;;8.60;;
17199;SDS011;8716;52.268;20.968;2023-04-15T07:07:49;7.90;;;7.50;;
17199;SDS011;8716;52.268;20.968;2023-04-15T07:10:20;11.33;;;6.53;;
17199;SDS011;8716;52.268;20.968;2023-04-15T07:12:52;11.27;;;10.67;;
17199;SDS011;8716;52.268;20.968;2023-04-15T07:15:22;7.07;;;6.70;;
17199;SDS011;8716;52.268;20.968;2023-04-15T07:17:51;9.03;;;8.13;;
17199;SDS011;8716;52.268;20.968;2023-04-15T07:20:19;5.10;;;4.80;;
17199;SDS011;8716;52.268;20.968;2023-04-15T07:22:47;8.00;;;7.60;;
17199;SDS011;8716;52.268;20.968;2023-04-15T07:25:15;9.87;;;9.37;;
17199;SDS011;8716;52.268;20.968;2023-04-15T07:27:45;10.27;;;7.27;;
17199;SDS011;8716;52.268;20.968;2023-04-15T07:30:13;5.70;;;5.40;;
17199;SDS011;8716;52.268;20.968;2023-04-15T07:32:42;6.37;;;6.00;;
17199;SDS011;8716;52.268;20.968;2023-04-15T07:35:10;7.77;;;7.13;;
17199;SDS011;8716;52.268;20.968;2023-04-15T07:37:38;9.37;;;8.87;;
17199;SDS011;8716;52.268;20.968;2023-04-15T07:40:09;7.80;;;7.40;;
17199;SDS011;8716;52.268;20.968;2023-04-15T07:42:37;7.50;;;7.10;;
17199;SDS011;8716;52.268;20.968;2023-04-15T07:45:10;9.33;;;8.83;;
17199;SDS011;8716;52.268;20.968;2023-04-15T07:47:39;6.87;;;6.47;;
17199;SDS011;8716;52.268;20.968;2023-04-15T07:50:08;5.17;;;4.87;;
17199;SDS011;8716;52.268;20.968;2023-04-15T07:52:37;8.20;;;7.80;;
17199;SDS011;8716;52.268;20.968;2023-04-15T07:55:06;5.03;;;4.77;;
17199;SDS011;8716;52.268;20.968;2023-04-15T07:57:35;5.37;;;5.07;;
17199;SDS011;8716;52.268;20.968;2023-04-15T08:00:04;6.17;;;5.87;;
17199;SDS011;8716;52.268;20.968;2023-04-15T08:02:40;7.90;;;7.50;;
17199;SDS011;8716;52.268;20.968;2023-04-15T08:05:09;6.60;;;6.20;;
17199;SDS011;8716;52.268;20.968;2023-04-15T08:07:37;7.40;;;5.20;;
17199;SDS011;8716;52.268;20.968;2023-04-15T08:10:06;7.03;;;6.03;;
17199;SDS011;8716;52.268;20.968;2023-04-15T08:12:34;5.60;;;5.30;;
17199;SDS011;8716;52.268;20.968;2023-04-15T08:15:06;6.63;;;6.23;;
17199;SDS011;8716;52.268;20.968;2023-04-15T08:17:34;7.00;;;5.23;;
17199;SDS011;8716;52.268;20.968;2023-04-15T08:20:05;7.33;;;5.50;;
17199;SDS011;8716;52.268;20.968;2023-04-15T08:22:33;6.97;;;6.57;;
17199;SDS011;8716;52.268;20.968;2023-04-15T08:25:02;4.90;;;4.60;;
17199;SDS011;8716;52.268;20.968;2023-04-15T08:27:30;5.00;;;4.70;;
17199;SDS011;8716;52.268;20.968;2023-04-15T08:29:58;4.47;;;4.17;;
17199;SDS011;8716;52.268;20.968;2023-04-15T08:32:30;5.37;;;5.07;;
17199;SDS011;8716;52.268;20.968;2023-04-15T08:34:58;6.60;;;5.23;;
17199;SDS011;8716;52.268;20.968;2023-04-15T08:37:28;6.47;;;6.07;;
17199;SDS011;8716;52.268;20.968;2023-04-15T08:39:56;6.77;;;6.37;;
17199;SDS011;8716;52.268;20.968;2023-04-15T08:42:26;5.87;;;5.57;;
17199;SDS011;8716;52.268;20.968;2023-04-15T08:44:58;5.43;;;4.03;;
17199;SDS011;8716;52.268;20.968;2023-04-15T08:47:28;6.03;;;4.60;;
17199;SDS011;8716;52.268;20.968;2023-04-15T08:49:57;4.87;;;4.57;;
17199;SDS011;8716;52.268;20.968;2023-04-15T08:52:26;8.20;;;5.60;;
17199;SDS011;8716;52.268;20.968;2023-04-15T08:54:57;6.07;;;5.77;;
17199;SDS011;8716;52.268;20.968;2023-04-15T08:57:27;12.63;;;6.70;;
17199;SDS011;8716;52.268;20.968;2023-04-15T08:59:55;5.27;;;4.97;;
17199;SDS011;8716;52.268;20.968;2023-04-15T09:02:27;5.70;;;5.40;;
17199;SDS011;8716;52.268;20.968;2023-04-15T09:04:55;6.57;;;6.17;;
17199;SDS011;8716;52.268;20.968;2023-04-15T09:07:23;7.03;;;6.60;;
17199;SDS011;8716;52.268;20.968;2023-04-15T09:09:52;5.17;;;4.87;;
17199;SDS011;8716;52.268;20.968;2023-04-15T09:12:21;4.77;;;4.47;;
17199;SDS011;8716;52.268;20.968;2023-04-15T09:14:50;5.97;;;5.67;;
17199;SDS011;8716;52.268;20.968;2023-04-15T09:17:18;5.77;;;5.47;;
17199;SDS011;8716;52.268;20.968;2023-04-15T09:19:47;5.70;;;3.50;;
17199;SDS011;8716;52.268;20.968;2023-04-15T09:22:15;9.07;;;4.30;;
17199;SDS011;8716;52.268;20.968;2023-04-15T09:24:44;6.90;;;6.50;;
17199;SDS011;8716;52.268;20.968;2023-04-15T09:27:14;4.43;;;4.13;;
17199;SDS011;8716;52.268;20.968;2023-04-15T09:29:44;3.67;;;3.53;;
17199;SDS011;8716;52.268;20.968;2023-04-15T09:32:24;4.27;;;3.60;;
17199;SDS011;8716;52.268;20.968;2023-04-15T09:35:28;4.03;;;3.83;;
17199;SDS011;8716;52.268;20.968;2023-04-15T09:38:01;4.40;;;4.10;;
17199;SDS011;8716;52.268;20.968;2023-04-15T09:40:30;4.13;;;3.33;;
17199;SDS011;8716;52.268;20.968;2023-04-15T09:43:00;7.17;;;6.77;;
17199;SDS011;8716;52.268;20.968;2023-04-15T09:45:36;4.73;;;4.43;;
17199;SDS011;8716;52.268;20.968;2023-04-15T09:48:15;4.97;;;4.67;;
17199;SDS011;8716;52.268;20.968;2023-04-15T09:50:44;4.87;;;4.57;;
17199;SDS011;8716;52.268;20.968;2023-04-15T09:53:17;7.07;;;6.67;;
17199;SDS011;8716;52.268;20.968;2023-04-15T09:55:48;4.43;;;4.13;;
17199;SDS011;8716;52.268;20.968;2023-04-15T09:58:17;5.13;;;4.83;;
17199;SDS011;8716;52.268;20.968;2023-04-15T10:00:48;5.57;;;5.27;;
17199;SDS011;8716;52.268;20.968;2023-04-15T10:03:18;9.63;;;5.03;;
17199;SDS011;8716;52.268;20.968;2023-04-15T10:05:48;3.93;;;3.70;;
17199;SDS011;8716;52.268;20.968;2023-04-15T10:08:21;3.50;;;3.30;;
17199;SDS011;8716;52.268;20.968;2023-04-15T10:10:52;5.73;;;5.07;;
17199;SDS011;8716;52.268;20.968;2023-04-15T10:13:21;4.80;;;4.50;;
17199;SDS011;8716;52.268;20.968;2023-04-15T10:15:57;5.50;;;5.20;;
17199;SDS011;8716;52.268;20.968;2023-04-15T10:18:31;6.80;;;4.93;;
17199;SDS011;8716;52.268;20.968;2023-04-15T10:21:02;5.00;;;4.70;;
17199;SDS011;8716;52.268;20.968;2023-04-15T10:23:32;4.63;;;4.33;;
17199;SDS011;8716;52.268;20.968;2023-04-15T10:26:01;3.73;;;3.53;;
17199;SDS011;8716;52.268;20.968;2023-04-15T10:28:30;3.77;;;3.57;;
17199;SDS011;8716;52.268;20.968;2023-04-15T10:31:00;10.80;;;4.90;;
17199;SDS011;8716;52.268;20.968;2023-04-15T10:33:29;6.17;;;5.07;;
17199;SDS011;8716;52.268;20.968;2023-04-15T10:35:58;5.70;;;5.40;;
17199;SDS011;8716;52.268;20.968;2023-04-15T10:38:32;4.60;;;4.30;;
17199;SDS011;8716;52.268;20.968;2023-04-15T10:41:16;5.60;;;5.30;;
17199;SDS011;8716;52.268;20.968;2023-04-15T10:43:47;4.70;;;4.40;;
17199;SDS011;8716;52.268;20.968;2023-04-15T10:46:20;5.50;;;5.20;;
17199;SDS011;8716;52.268;20.968;2023-04-15T10:48:51;4.60;;;4.30;;
17199;SDS011;8716;52.268;20.968;2023-04-15T10:51:27;3.77;;;3.57;;
17199;SDS011;8716;52.268;20.968;2023-04-15T10:53:57;5.37;;;5.07;;
17199;SDS011;8716;52.268;20.968;2023-04-15T10:56:29;4.80;;;4.50;;
17199;SDS011;8716;52.268;20.968;2023-04-15T10:58:58;4.67;;;4.37;;
17199;SDS011;8716;52.268;20.968;2023-04-15T11:07:33;4.13;;;3.53;;
17199;SDS011;8716;52.268;20.968;2023-04-15T11:13:25;5.80;;;5.50;;
17199;SDS011;8716;52.268;20.968;2023-04-15T11:16:00;5.37;;;5.07;;
17199;SDS011;8716;52.268;20.968;2023-04-15T11:18:33;4.50;;;4.20;;
17199;SDS011;8716;52.268;20.968;2023-04-15T11:21:04;5.70;;;5.40;;
17199;SDS011;8716;52.268;20.968;2023-04-15T11:23:36;5.73;;;5.43;;
17199;SDS011;8716;52.268;20.968;2023-04-15T11:26:06;6.33;;;5.57;;
17199;SDS011;8716;52.268;20.968;2023-04-15T11:28:38;7.27;;;4.20;;
17199;SDS011;8716;52.268;20.968;2023-04-15T11:31:07;3.43;;;3.23;;
17199;SDS011;8716;52.268;20.968;2023-04-15T11:33:45;4.00;;;3.80;;
17199;SDS011;8716;52.268;20.968;2023-04-15T11:36:20;5.00;;;4.70;;
17199;SDS011;8716;52.268;20.968;2023-04-15T11:38:56;4.70;;;4.40;;
17199;SDS011;8716;52.268;20.968;2023-04-15T11:41:27;4.17;;;3.93;;
17199;SDS011;8716;52.268;20.968;2023-04-15T11:43:55;5.63;;;5.33;;
17199;SDS011;8716;52.268;20.968;2023-04-15T11:46:27;3.67;;;3.47;;
17199;SDS011;8716;52.268;20.968;2023-04-15T11:49:00;4.93;;;4.33;;
17199;SDS011;8716;52.268;20.968;2023-04-15T11:51:31;5.57;;;5.17;;
17199;SDS011;8716;52.268;20.968;2023-04-15T11:54:00;4.50;;;4.20;;
17199;SDS011;8716;52.268;20.968;2023-04-15T11:56:29;3.77;;;3.57;;
17199;SDS011;8716;52.268;20.968;2023-04-15T11:58:59;4.90;;;4.60;;
17199;SDS011;8716;52.268;20.968;2023-04-15T12:01:31;4.27;;;4.00;;
17199;SDS011;8716;52.268;20.968;2023-04-15T12:04:02;4.07;;;3.83;;
17199;SDS011;8716;52.268;20.968;2023-04-15T12:06:40;4.77;;;4.47;;
17199;SDS011;8716;52.268;20.968;2023-04-15T12:09:11;5.50;;;5.20;;
17199;SDS011;8716;52.268;20.968;2023-04-15T12:11:45;6.30;;;3.93;;
17199;SDS011;8716;52.268;20.968;2023-04-15T12:14:15;3.20;;;3.00;;
17199;SDS011;8716;52.268;20.968;2023-04-15T12:16:48;4.57;;;3.07;;
17199;SDS011;8716;52.268;20.968;2023-04-15T12:19:23;5.27;;;4.13;;
17199;SDS011;8716;52.268;20.968;2023-04-15T12:21:57;3.90;;;3.70;;
17199;SDS011;8716;52.268;20.968;2023-04-15T12:24:26;4.57;;;4.27;;
17199;SDS011;8716;52.268;20.968;2023-04-15T12:27:00;3.10;;;2.90;;
17199;SDS011;8716;52.268;20.968;2023-04-15T12:29:29;3.73;;;3.53;;
17199;SDS011;8716;52.268;20.968;2023-04-15T12:32:03;4.70;;;4.40;;
17199;SDS011;8716;52.268;20.968;2023-04-15T12:34:35;4.33;;;4.07;;
17199;SDS011;8716;52.268;20.968;2023-04-15T12:37:05;6.60;;;6.20;;
17199;SDS011;8716;52.268;20.968;2023-04-15T12:39:35;4.23;;;3.97;;
17199;SDS011;8716;52.268;20.968;2023-04-15T12:42:05;3.40;;;3.20;;
17199;SDS011;8716;52.268;20.968;2023-04-15T12:44:33;12.60;;;8.47;;
17199;SDS011;8716;52.268;20.968;2023-04-15T12:47:02;4.30;;;3.90;;
17199;SDS011;8716;52.268;20.968;2023-04-15T12:49:31;4.73;;;4.43;;
17199;SDS011;8716;52.268;20.968;2023-04-15T12:52:02;4.53;;;4.23;;
17199;SDS011;8716;52.268;20.968;2023-04-15T12:54:31;3.77;;;3.67;;
17199;SDS011;8716;52.268;20.968;2023-04-15T12:57:24;4.10;;;3.90;;
17199;SDS011;8716;52.268;20.968;2023-04-15T12:59:56;5.90;;;5.33;;
17199;SDS011;8716;52.268;20.968;2023-04-15T13:02:37;8.03;;;7.00;;
17199;SDS011;8716;52.268;20.968;2023-04-15T13:05:14;3.83;;;3.63;;
17199;SDS011;8716;52.268;20.968;2023-04-15T13:08:27;4.50;;;4.20;;
17199;SDS011;8716;52.268;20.968;2023-04-15T13:10:58;7.83;;;4.27;;
17199;SDS011;8716;52.268;20.968;2023-04-15T13:13:38;3.57;;;3.37;;
17199;SDS011;8716;52.268;20.968;2023-04-15T13:16:06;4.10;;;3.87;;
17199;SDS011;8716;52.268;20.968;2023-04-15T13:18:35;4.97;;;4.67;;
17199;SDS011;8716;52.268;20.968;2023-04-15T13:21:03;4.73;;;4.43;;
17199;SDS011;8716;52.268;20.968;2023-04-15T13:23:34;8.70;;;5.63;;
17199;SDS011;8716;52.268;20.968;2023-04-15T13:26:02;5.50;;;5.20;;
17199;SDS011;8716;52.268;20.968;2023-04-15T13:28:31;4.33;;;4.03;;
17199;SDS011;8716;52.268;20.968;2023-04-15T13:30:59;7.27;;;6.87;;
17199;SDS011;8716;52.268;20.968;2023-04-15T13:33:27;4.53;;;4.23;;
17199;SDS011;8716;52.268;20.968;2023-04-15T13:35:55;3.63;;;3.37;;
17199;SDS011;8716;52.268;20.968;2023-04-15T13:38:24;4.37;;;4.10;;
17199;SDS011;8716;52.268;20.968;2023-04-15T13:40:53;5.37;;;5.07;;
17199;SDS011;8716;52.268;20.968;2023-04-15T13:43:29;6.30;;;5.00;;
17199;SDS011;8716;52.268;20.968;2023-04-15T13:46:24;4.77;;;4.50;;
17199;SDS011;8716;52.268;20.968;2023-04-15T13:48:52;3.10;;;2.90;;
17199;SDS011;8716;52.268;20.968;2023-04-15T13:51:20;5.03;;;4.73;;
17199;SDS011;8716;52.268;20.968;2023-04-15T13:53:48;3.17;;;2.97;;
17199;SDS011;8716;52.268;20.968;2023-04-15T13:56:18;3.53;;;3.33;;
17199;SDS011;8716;52.268;20.968;2023-04-15T13:58:47;3.30;;;3.10;;
17199;SDS011;8716;52.268;20.968;2023-04-15T14:01:15;3.53;;;3.33;;
17199;SDS011;8716;52.268;20.968;2023-04-15T14:03:45;3.20;;;3.00;;
17199;SDS011;8716;52.268;20.968;2023-04-15T14:06:14;2.90;;;2.70;;
17199;SDS011;8716;52.268;20.968;2023-04-15T14:08:42;3.27;;;3.10;;
17199;SDS011;8716;52.268;20.968;2023-04-15T14:11:13;4.60;;;4.30;;
17199;SDS011;8716;52.268;20.968;2023-04-15T14:13:42;3.10;;;2.90;;
17199;SDS011;8716;52.268;20.968;2023-04-15T14:16:10;5.10;;;4.50;;
17199;SDS011;8716;52.268;20.968;2023-04-15T14:18:39;7.63;;;4.17;;
17199;SDS011;8716;52.268;20.968;2023-04-15T14:21:07;2.73;;;2.53;;
17199;SDS011;8716;52.268;20.968;2023-04-15T14:23:35;4.87;;;4.57;;
17199;SDS011;8716;52.268;20.968;2023-04-15T14:26:03;4.50;;;4.20;;
17199;SDS011;8716;52.268;20.968;2023-04-15T14:28:34;3.87;;;3.67;;
17199;SDS011;8716;52.268;20.968;2023-04-15T14:31:05;5.43;;;5.13;;
17199;SDS011;8716;52.268;20.968;2023-04-15T14:33:33;3.50;;;3.30;;
17199;SDS011;8716;52.268;20.968;2023-04-15T14:36:03;4.73;;;4.43;;
17199;SDS011;8716;52.268;20.968;2023-04-15T14:38:32;5.07;;;4.77;;
17199;SDS011;8716;52.268;20.968;2023-04-15T14:41:04;3.53;;;3.33;;
17199;SDS011;8716;52.268;20.968;2023-04-15T14:43:32;4.47;;;4.17;;
17199;SDS011;8716;52.268;20.968;2023-04-15T14:46:01;4.50;;;4.23;;
17199;SDS011;8716;52.268;20.968;2023-04-15T14:48:30;4.03;;;3.83;;
17199;SDS011;8716;52.268;20.968;2023-04-15T14:50:59;3.90;;;3.70;;
17199;SDS011;8716;52.268;20.968;2023-04-15T14:53:30;4.07;;;3.87;;
17199;SDS011;8716;52.268;20.968;2023-04-15T14:56:00;4.90;;;4.60;;
17199;SDS011;8716;52.268;20.968;2023-04-15T14:58:29;3.63;;;3.43;;
17199;SDS011;8716;52.268;20.968;2023-04-15T15:01:00;3.40;;;3.20;;
17199;SDS011;8716;52.268;20.968;2023-04-15T15:03:31;4.07;;;3.87;;
17199;SDS011;8716;52.268;20.968;2023-04-15T15:06:00;4.10;;;3.90;;
17199;SDS011;8716;52.268;20.968;2023-04-15T15:08:31;3.30;;;3.10;;
17199;SDS011;8716;52.268;20.968;2023-04-15T15:11:03;4.40;;;4.10;;
17199;SDS011;8716;52.268;20.968;2023-04-15T15:13:36;3.27;;;3.07;;
17199;SDS011;8716;52.268;20.968;2023-04-15T15:16:07;3.97;;;3.77;;
17199;SDS011;8716;52.268;20.968;2023-04-15T15:18:40;5.27;;;4.97;;